createdAt,value
2023-04-12T00:00:13.501Z,99501.88
2023-04-12T00:02:44.824Z,99506.19
2023-04-12T00:05:14.240Z,99500.81
2023-04-12T00:07:43.090Z,99490.03
2023-04-12T00:10:12.893Z,99480.84
2023-04-12T00:12:41.653Z,99464.66
2023-04-12T00:15:10.721Z,99459.28
2023-04-12T00:17:38.706Z,99461.16
2023-04-12T00:20:12.238Z,99473.34
2023-04-12T00:22:41.589Z,99466.31
2023-04-12T00:25:09.691Z,99473.34
2023-04-12T00:27:39.221Z,99463.38
2023-04-12T00:30:08.725Z,99457.16
2023-04-12T00:32:36.727Z,99448.00
2023-04-12T00:35:04.923Z,99455.88
2023-04-12T00:37:33.004Z,99455.88
2023-04-12T00:40:01.024Z,99448.59
2023-04-12T00:42:28.966Z,99449.66
2023-04-12T00:44:58.341Z,99442.97
2023-04-12T00:47:26.488Z,99444.84
2023-04-12T00:49:54.519Z,99451.06
2023-04-12T00:52:22.520Z,99453.50
2023-04-12T00:54:51.847Z,99450.25
2023-04-12T00:57:19.877Z,99452.47
2023-04-12T00:59:48.757Z,99447.91
2023-04-12T01:02:55.058Z,99449.53
2023-04-12T01:05:24.370Z,99451.41
2023-04-12T01:07:56.345Z,99453.63
2023-04-12T01:10:30.888Z,99441.19
2023-04-12T01:13:05.550Z,99442.28
2023-04-12T01:15:34.108Z,99438.50
2023-04-12T01:18:05.854Z,99442.81
2023-04-12T01:20:37.510Z,99429.34
2023-04-12T01:23:31.226Z,99438.28
2023-04-12T01:26:11.249Z,99439.31
2023-04-12T01:28:43.460Z,99444.50
2023-04-12T01:31:12.945Z,99436.41
2023-04-12T01:33:41.102Z,99429.94
2023-04-12T01:36:12.749Z,99426.63
2023-04-12T01:38:41.122Z,99423.94
2023-04-12T01:41:09.346Z,99438.28
2023-04-12T01:43:43.765Z,99439.09
2023-04-12T01:46:12.183Z,99433.91
2023-04-12T01:48:40.256Z,99444.50
2023-04-12T01:51:11.715Z,99445.31
2023-04-12T01:53:44.893Z,99447.19
2023-04-12T01:56:12.858Z,99441.78
2023-04-12T01:58:42.557Z,99440.72
2023-04-12T02:01:10.684Z,99439.91
2023-04-12T02:03:38.795Z,99430.75
2023-04-12T02:06:07.312Z,99438.03
2023-04-12T02:08:35.423Z,99439.69
2023-04-12T02:11:09.028Z,99446.94
2023-04-12T02:13:38.291Z,99445.09
2023-04-12T02:16:10.918Z,99444.00
2023-04-12T02:18:41.613Z,99434.28
2023-04-12T02:21:09.718Z,99447.78
2023-04-12T02:23:37.743Z,99450.47
2023-04-12T02:26:05.923Z,99448.59
2023-04-12T02:28:34.707Z,99439.69
2023-04-12T02:31:02.804Z,99444.00
2023-04-12T02:33:32.232Z,99451.06
2023-04-12T02:36:02.641Z,99444.81
2023-04-12T02:38:31.003Z,99439.44
2023-04-12T02:40:59.029Z,99437.81
2023-04-12T02:43:26.970Z,99440.28
2023-04-12T02:45:55.069Z,99448.16
2023-04-12T02:48:22.973Z,99447.34
2023-04-12T02:50:52.367Z,99445.44
2023-04-12T02:53:20.756Z,99441.09
2023-04-12T02:55:48.864Z,99443.56
2023-04-12T02:58:17.601Z,99448.97
2023-04-12T03:00:46.869Z,99445.19
2023-04-12T03:03:14.960Z,99453.28
2023-04-12T03:05:47.306Z,99449.56
2023-04-12T03:08:16.732Z,99456.00
2023-04-12T03:10:44.749Z,99463.03
2023-04-12T03:13:12.658Z,99454.94
2023-04-12T03:15:41.551Z,99456.00
2023-04-12T03:18:09.557Z,99456.00
2023-04-12T03:20:39.110Z,99450.84
2023-04-12T03:23:07.105Z,99461.38
2023-04-12T03:25:37.093Z,99460.56
2023-04-12T03:28:05.388Z,99461.38
2023-04-12T03:30:33.418Z,99450.03
2023-04-12T03:33:01.450Z,99458.13
2023-04-12T03:35:29.527Z,99452.72
2023-04-12T03:37:57.550Z,99460.81
2023-04-12T03:40:25.831Z,99452.72
2023-04-12T03:42:55.194Z,99457.06
2023-04-12T03:45:23.272Z,99445.66
2023-04-12T03:47:51.267Z,99447.34
2023-04-12T03:50:19.902Z,99451.06
2023-04-12T03:52:47.904Z,99448.97
2023-04-12T03:55:18.575Z,99451.66
2023-04-12T03:57:46.532Z,99465.97
2023-04-12T04:00:16.868Z,99459.75
2023-04-12T04:02:44.962Z,99465.16
2023-04-12T04:05:13.831Z,99460.56
2023-04-12T04:07:41.916Z,99473.03
2023-04-12T04:10:10.789Z,99478.44
2023-04-12T04:12:38.808Z,99485.69
2023-04-12T04:15:07.526Z,99485.69
2023-04-12T04:17:36.902Z,99479.72
2023-04-12T04:20:07.114Z,99482.97
2023-04-12T04:22:35.118Z,99482.16
2023-04-12T04:25:03.107Z,99472.44
2023-04-12T04:27:34.247Z,99475.94
2023-04-12T04:30:02.790Z,99474.31
2023-04-12T04:32:31.691Z,99469.47
2023-04-12T04:35:01.168Z,99479.84
2023-04-12T04:37:29.513Z,99480.41
2023-04-12T04:39:57.505Z,99483.69
2023-04-12T04:42:25.469Z,99475.59
2023-04-12T04:45:04.535Z,99488.59
2023-04-12T04:47:32.603Z,99481.56
2023-04-12T04:50:02.321Z,99486.97
2023-04-12T04:52:30.358Z,99489.69
2023-04-12T04:54:58.359Z,99475.09
2023-04-12T04:57:26.803Z,99487.56
2023-04-12T04:59:54.813Z,99479.47
2023-04-12T05:02:24.241Z,99477.59
2023-04-12T05:04:56.299Z,99480.28
2023-04-12T05:07:26.243Z,99477.59
2023-04-12T05:09:54.358Z,99489.19
2023-04-12T05:12:22.603Z,99486.75
2023-04-12T05:14:51.920Z,99498.09
2023-04-12T05:17:20.209Z,99497.28
2023-04-12T05:19:48.270Z,99491.06
2023-04-12T05:22:20.318Z,99491.88
2023-04-12T05:24:49.730Z,99486.50
2023-04-12T05:27:17.669Z,99490.59
2023-04-12T05:29:45.616Z,99486.81
2023-04-12T05:32:13.564Z,99489.31
2023-04-12T05:34:42.368Z,99492.81
2023-04-12T05:37:10.311Z,99489.31
2023-04-12T05:39:38.346Z,99487.69
2023-04-12T05:42:07.829Z,99483.09
2023-04-12T05:44:36.267Z,99475.59
2023-04-12T05:47:04.450Z,99469.94
2023-04-12T05:49:32.563Z,99478.03
2023-04-12T05:52:00.575Z,99472.63
2023-04-12T05:54:28.576Z,99482.13
2023-04-12T05:56:57.172Z,99482.94
2023-04-12T05:59:26.528Z,99479.22
2023-04-12T06:01:54.555Z,99475.44
2023-04-12T06:04:22.860Z,99483.53
2023-04-12T06:06:51.374Z,99478.72
2023-04-12T06:09:19.928Z,99482.25
2023-04-12T06:11:48.063Z,99468.72
2023-04-12T06:14:16.057Z,99464.97
2023-04-12T06:16:45.384Z,99460.41
2023-04-12T06:19:13.467Z,99465.81
2023-04-12T06:21:41.470Z,99462.03
2023-04-12T06:24:09.647Z,99463.66
2023-04-12T06:26:40.195Z,99464.50
2023-04-12T06:29:08.484Z,99457.22
2023-04-12T06:31:36.776Z,99452.41
2023-04-12T06:34:06.227Z,99452.97
2023-04-12T06:36:34.198Z,99452.75
2023-04-12T06:39:02.213Z,99448.16
2023-04-12T06:41:30.865Z,99463.06
2023-04-12T06:43:59.010Z,99472.81
2023-04-12T06:46:27.576Z,99465.53
2023-04-12T06:48:55.715Z,99456.94
2023-04-12T06:51:25.108Z,99453.44
2023-04-12T06:53:53.062Z,99458.84
2023-04-12T06:56:21.213Z,99462.34
2023-04-12T06:58:49.247Z,99457.19
2023-04-12T07:01:17.864Z,99460.13
2023-04-12T07:03:46.132Z,99465.53
2023-04-12T07:06:24.333Z,99449.34
2023-04-12T07:08:55.092Z,99446.28
2023-04-12T07:11:23.933Z,99450.28
2023-04-12T07:13:52.074Z,99445.13
2023-04-12T07:16:20.068Z,99451.56
2023-04-12T07:19:44.573Z,99446.44
2023-04-12T07:22:14.066Z,99451.00
2023-04-12T07:24:43.537Z,99455.56
2023-04-12T07:27:11.870Z,99452.31
2023-04-12T07:29:39.809Z,99465.81
2023-04-12T07:32:08.221Z,99465.22
2023-04-12T07:34:36.786Z,99450.66
2023-04-12T07:37:05.186Z,99456.31
2023-04-12T07:39:34.902Z,99460.03
2023-04-12T07:42:04.262Z,99466.53
2023-04-12T07:44:32.426Z,99459.22
2023-04-12T07:47:00.366Z,99465.69
2023-04-12T08:00:52.745Z,99456.78
2023-04-12T08:03:20.900Z,99464.31
2023-04-12T08:17:34.076Z,99454.31
2023-04-12T08:20:11.888Z,99454.31
2023-04-12T08:22:40.062Z,99452.22
2023-04-12T08:25:09.137Z,99459.22
2023-04-12T08:27:37.099Z,99449.25
2023-04-12T08:30:06.050Z,99454.66
2023-04-12T08:32:35.480Z,99456.31
2023-04-12T08:35:03.598Z,99440.91
2023-04-12T08:37:31.812Z,99447.94
2023-04-12T08:40:00.904Z,99447.94
2023-04-12T08:42:28.895Z,99438.81
2023-04-12T08:44:56.843Z,99443.94
2023-04-12T08:47:24.826Z,99444.75
2023-04-12T08:57:33.553Z,99441.03
2023-04-12T09:00:01.973Z,99425.63
2023-04-12T09:02:30.108Z,99434.56
2023-04-12T09:04:58.568Z,99430.81
2023-04-12T09:07:28.839Z,99438.91
2023-04-12T09:09:58.108Z,99436.22
2023-04-12T09:12:26.161Z,99440.53
2023-04-12T09:15:09.671Z,99431.38
2023-04-12T09:17:39.048Z,99438.44
2023-04-12T09:20:26.049Z,99432.75
2023-04-12T09:22:55.612Z,99417.88
2023-04-12T09:25:40.528Z,99430.31
2023-04-12T09:28:23.083Z,99422.81
2023-04-12T09:30:53.104Z,99420.09
2023-04-12T09:33:21.524Z,99415.25
2023-04-12T09:39:34.232Z,99409.31
2023-04-12T09:42:10.504Z,99416.56
2023-04-12T09:44:43.640Z,99405.75
2023-04-12T09:47:13.069Z,99404.13
2023-04-12T09:49:41.544Z,99397.91
2023-04-12T09:52:10.830Z,99397.66
2023-04-12T09:54:40.151Z,99410.94
2023-04-12T09:57:08.492Z,99409.31
2023-04-12T09:59:38.441Z,99409.88
2023-04-12T10:02:08.788Z,99405.03
2023-04-12T10:04:40.577Z,99394.25
2023-04-12T10:07:08.645Z,99404.47
2023-04-12T10:09:39.062Z,99399.91
2023-04-12T10:12:07.215Z,99395.31
2023-04-12T10:14:35.658Z,99405.03
2023-04-12T10:17:04.652Z,99404.47
2023-04-12T10:19:33.701Z,99388.25
2023-04-12T10:22:03.166Z,99394.16
2023-04-12T10:24:32.151Z,99393.91
2023-04-12T10:27:03.052Z,99389.91
2023-04-12T10:29:32.146Z,99393.16
2023-04-12T10:32:19.352Z,99389.44
2023-04-12T10:34:51.472Z,99384.03
2023-04-12T10:37:21.047Z,99389.44
2023-04-12T10:39:53.557Z,99375.91
2023-04-12T10:42:25.922Z,99371.09
2023-04-12T10:44:54.916Z,99365.69
2023-04-12T10:48:01.610Z,99378.13
2023-04-12T10:50:30.299Z,99378.13
2023-04-12T10:53:28.062Z,99367.56
2023-04-12T10:55:56.018Z,99367.31
2023-04-12T10:58:59.002Z,99367.31
2023-04-12T11:01:27.600Z,99357.09
2023-04-12T11:04:16.050Z,99350.63
2023-04-12T11:06:48.595Z,99356.03
2023-04-12T11:09:25.363Z,99353.34
2023-04-12T11:11:54.014Z,99363.09
2023-04-12T11:14:30.866Z,99358.75
2023-04-12T11:17:21.802Z,99345.22
2023-04-12T11:20:00.404Z,99347.69
2023-04-12T11:22:30.160Z,99344.75
2023-04-12T11:25:00.040Z,99351.78
2023-04-12T11:27:28.533Z,99350.97
2023-04-12T11:29:57.109Z,99345.00
2023-04-12T11:32:26.561Z,99357.69
2023-04-12T11:34:55.480Z,99338.19
2023-04-12T11:37:23.462Z,99346.88
2023-04-12T11:39:53.075Z,99342.03
2023-04-12T11:42:24.705Z,99337.22
2023-04-12T11:44:58.936Z,99338.88
2023-04-12T11:47:30.061Z,99330.78
2023-04-12T11:49:58.921Z,99325.38
2023-04-12T11:52:30.118Z,99316.41
2023-04-12T11:54:58.989Z,99328.63
2023-04-12T11:57:29.200Z,99326.72
2023-04-12T11:59:58.921Z,99321.91
2023-04-12T12:02:30.380Z,99314.38
2023-04-12T12:05:01.461Z,99317.41
2023-04-12T12:07:29.819Z,99321.50
2023-04-12T12:09:57.898Z,99334.81
2023-04-12T12:12:26.199Z,99331.03
2023-04-12T12:14:55.572Z,99333.50
2023-04-12T12:17:23.637Z,99318.69
2023-04-12T12:20:01.533Z,99317.53
2023-04-12T12:22:29.474Z,99309.88
2023-04-12T12:24:58.894Z,99302.03
2023-04-12T12:27:35.546Z,99308.50
2023-04-12T12:30:05.570Z,99312.50
2023-04-12T12:32:34.911Z,99307.91
2023-04-12T12:38:43.792Z,99294.16
2023-04-12T12:41:18.632Z,99300.88
2023-04-12T12:43:47.337Z,99303.50
2023-04-12T12:46:17.641Z,99298.25
2023-04-12T12:48:45.723Z,99297.09
2023-04-12T12:51:13.997Z,99294.81
2023-04-12T12:53:42.124Z,99306.59
2023-04-12T12:56:11.202Z,99295.69
2023-04-12T12:58:41.049Z,99295.59
2023-04-12T13:01:09.289Z,99289.03
2023-04-12T13:03:38.978Z,99289.53
2023-04-12T13:06:10.281Z,99285.66
2023-04-12T13:08:38.199Z,99286.16
2023-04-12T13:11:06.682Z,99285.59
2023-04-12T13:13:34.678Z,99281.72
2023-04-12T13:16:02.632Z,99287.47
2023-04-12T13:18:30.749Z,99283.88
2023-04-12T13:21:37.274Z,99272.97
2023-04-12T13:24:05.179Z,99275.31
2023-04-12T13:26:35.860Z,99276.16
2023-04-12T13:29:03.826Z,99268.28
2023-04-12T13:31:31.976Z,99262.31
2023-04-12T13:34:00.320Z,99262.31
2023-04-12T13:36:28.541Z,99266.56
2023-04-12T13:38:58.079Z,99263.78
2023-04-12T13:41:26.476Z,99266.13
2023-04-12T13:43:54.470Z,99268.56
2023-04-12T13:46:22.520Z,99261.56
2023-04-12T13:48:51.070Z,99255.34
2023-04-12T13:51:19.297Z,99246.66
2023-04-12T13:53:47.611Z,99255.00
2023-04-12T13:56:17.144Z,99251.72
2023-04-12T13:58:45.163Z,99257.09
2023-04-12T14:01:13.626Z,99240.91
2023-04-12T14:03:41.771Z,99245.50
2023-04-12T14:07:11.067Z,99249.59
2023-04-12T14:09:38.973Z,99249.00
2023-04-12T14:12:08.323Z,99247.97
2023-04-12T14:14:36.229Z,99249.59
2023-04-12T14:17:04.166Z,99250.41
2023-04-12T14:19:32.297Z,99251.00
2023-04-12T14:22:00.386Z,99252.88
2023-04-12T14:24:28.295Z,99245.94
2023-04-12T14:26:57.193Z,99244.19
2023-04-12T14:29:27.198Z,99239.34
2023-04-12T14:31:55.238Z,99247.69
2023-04-12T14:34:23.205Z,99252.50
2023-04-12T14:37:30.005Z,99255.69
2023-04-12T14:39:57.999Z,99255.09
2023-04-12T14:42:26.106Z,99255.09
2023-04-12T14:44:55.462Z,99248.63
2023-04-12T14:47:23.466Z,99255.28
2023-04-12T14:49:51.390Z,99253.19
2023-04-12T14:53:16.443Z,99253.13
2023-04-12T14:55:45.613Z,99255.25
2023-04-12T14:58:13.562Z,99255.91
2023-04-12T15:00:42.814Z,99261.50
2023-04-12T15:03:11.026Z,99255.09
2023-04-12T15:13:25.007Z,99255.44
2023-04-12T15:15:55.488Z,99253.06
2023-04-12T15:18:23.500Z,99253.41
2023-04-12T15:25:33.038Z,99258.00
2023-04-12T15:28:01.506Z,99256.13
2023-04-12T15:30:29.747Z,99260.69
2023-04-12T15:32:59.730Z,99262.59
2023-04-12T15:35:27.801Z,99264.06
2023-04-12T15:42:15.960Z,99262.41
2023-04-12T15:44:45.454Z,99258.78
2023-04-12T15:47:13.572Z,99243.09
2023-04-12T15:49:42.924Z,99248.97
2023-04-12T15:52:49.743Z,99245.69
2023-04-12T15:55:20.268Z,99251.00
2023-04-12T15:57:48.613Z,99250.44
2023-04-12T16:00:24.700Z,99247.19
2023-04-12T16:02:56.440Z,99242.25
2023-04-12T16:05:26.690Z,99239.00
2023-04-12T16:16:29.126Z,99235.13
2023-04-12T16:18:59.274Z,99239.94
2023-04-12T16:53:14.098Z,99215.69
2023-04-12T16:55:44.505Z,99217.00
2023-04-12T16:58:12.544Z,99210.19
2023-04-12T17:00:42.877Z,99217.44
2023-04-12T17:03:11.530Z,99218.75
2023-04-12T17:05:40.092Z,99224.16
2023-04-12T17:12:00.591Z,99221.44
2023-04-12T17:14:29.383Z,99219.59
2023-04-12T17:16:57.395Z,99225.81
2023-04-12T17:19:25.384Z,99224.16
2023-04-12T17:22:30.828Z,99229.53
2023-04-12T17:24:58.800Z,99226.84
2023-04-12T17:27:28.092Z,99227.44
2023-04-12T17:29:56.044Z,99227.44
2023-04-12T17:32:24.058Z,99228.25
2023-04-12T17:34:54.806Z,99235.31
2023-04-12T17:38:12.793Z,99230.72
2023-04-12T17:40:40.922Z,99230.94
2023-04-12T17:43:10.523Z,99232.25
2023-04-12T17:45:38.539Z,99233.31
2023-04-12T17:48:07.071Z,99234.94
2023-04-12T17:50:35.227Z,99234.13
2023-04-12T17:53:03.655Z,99234.41
2023-04-12T17:55:31.801Z,99244.94
2023-04-12T17:57:59.696Z,99244.94
2023-04-12T18:00:29.128Z,99244.69
2023-04-12T18:02:57.751Z,99246.59
2023-04-12T18:05:26.019Z,99247.41
2023-04-12T18:08:49.854Z,99242.00
2023-04-12T18:11:18.363Z,99249.28
2023-04-12T18:13:46.734Z,99253.59
2023-04-12T18:16:16.194Z,99246.59
2023-04-12T18:18:44.322Z,99251.13
2023-04-12T18:21:12.386Z,99246.59
2023-04-12T18:23:40.485Z,99245.75
2023-04-12T18:26:08.406Z,99261.94
2023-04-12T18:28:37.490Z,99255.97
2023-04-12T18:31:06.838Z,99255.97
2023-04-12T18:33:36.263Z,99256.19
2023-04-12T18:36:04.658Z,99256.19
2023-04-12T18:38:33.697Z,99261.03
2023-04-12T18:41:01.649Z,99260.19
2023-04-12T18:43:29.644Z,99262.91
2023-04-12T18:45:57.573Z,99262.09
2023-04-12T18:48:27.246Z,99258.31
2023-04-12T18:50:57.534Z,99255.88
2023-04-12T18:53:25.494Z,99253.19
2023-04-12T18:55:53.655Z,99248.59
2023-04-12T18:58:21.673Z,99262.91
2023-04-12T19:00:50.745Z,99264.78
2023-04-12T19:03:18.905Z,99262.91
2023-04-12T19:05:46.972Z,99257.50
2023-04-12T19:08:16.392Z,99259.13
2023-04-12T19:10:44.389Z,99265.59
2023-04-12T19:13:12.264Z,99251.03
2023-04-12T19:15:40.324Z,99254.56
2023-04-12T19:18:08.367Z,99250.00
2023-04-12T19:20:36.445Z,99244.59
2023-04-12T19:23:24.507Z,99259.72
2023-04-12T19:25:53.046Z,99261.59
2023-04-12T19:28:21.167Z,99253.50
2023-04-12T19:30:49.126Z,99256.44
2023-04-12T19:33:17.191Z,99251.63
2023-04-12T19:35:45.125Z,99248.13
2023-04-12T19:38:13.598Z,99250.00
2023-04-12T19:40:43.147Z,99245.41
2023-04-12T19:43:14.078Z,99244.59
2023-04-12T19:45:42.390Z,99248.34
2023-04-12T19:48:10.472Z,99238.63
2023-04-12T19:50:38.574Z,99235.09
2023-04-12T19:53:06.565Z,99230.53
2023-04-12T19:55:34.579Z,99230.53
2023-04-12T19:58:03.981Z,99227.81
2023-04-12T20:00:32.152Z,99225.94
2023-04-12T20:03:00.704Z,99222.44
2023-04-12T20:05:28.972Z,99221.34
2023-04-12T20:07:56.993Z,99214.09
2023-04-12T20:10:25.228Z,99221.13
2023-04-12T20:12:53.173Z,99220.91
2023-04-12T20:15:22.521Z,99223.59
2023-04-12T20:17:51.996Z,99211.50
2023-04-12T20:20:20.510Z,99215.00
2023-04-12T20:22:51.974Z,99212.91
2023-04-12T20:25:21.014Z,99211.00
2023-04-12T20:27:52.156Z,99205.34
2023-04-12T20:30:20.990Z,99209.72
2023-04-12T20:32:54.176Z,99212.41
2023-04-12T20:35:23.566Z,99209.44
2023-04-12T20:38:30.716Z,99205.94
2023-04-12T20:40:58.798Z,99209.44
2023-04-12T20:43:27.159Z,99208.41
2023-04-12T20:45:55.292Z,99206.53
2023-04-12T20:48:24.954Z,99210.03
2023-04-12T20:50:52.936Z,99210.88
2023-04-12T20:53:21.026Z,99201.47
2023-04-12T20:55:48.925Z,99203.38
2023-04-12T20:58:17.821Z,99206.06
2023-04-12T21:00:46.868Z,99203.13
2023-04-12T21:03:14.953Z,99206.88
2023-04-12T21:05:46.137Z,99209.34
2023-04-12T21:08:14.203Z,99206.66
2023-04-12T21:10:42.786Z,99206.66
2023-04-12T21:13:11.995Z,99208.03
2023-04-12T21:15:40.338Z,99214.25
2023-04-12T21:18:08.409Z,99206.38
2023-04-12T21:20:36.441Z,99218.84
2023-04-12T21:23:07.436Z,99215.06
2023-04-12T21:25:35.502Z,99216.72
2023-04-12T21:28:03.623Z,99214.25
2023-04-12T21:30:31.671Z,99216.72
2023-04-12T21:33:02.331Z,99223.75
2023-04-12T21:35:31.230Z,99219.16
2023-04-12T21:37:59.216Z,99214.84
2023-04-12T21:40:28.655Z,99212.72
2023-04-12T21:42:57.159Z,99212.94
2023-04-12T21:45:25.576Z,99214.56
2023-04-12T21:47:54.349Z,99207.31
2023-04-12T21:50:22.495Z,99210.03
2023-04-12T21:52:50.427Z,99204.63
2023-04-12T21:55:18.686Z,99208.94
2023-04-12T21:57:48.122Z,99190.88
2023-04-12T22:00:18.371Z,99199.53
2023-04-12T22:02:46.548Z,99184.16
2023-04-12T22:05:14.657Z,99183.09
2023-04-12T22:07:51.794Z,99187.44
2023-04-12T22:10:20.729Z,99191.19
2023-04-12T22:12:51.243Z,99190.72
2023-04-12T22:15:19.684Z,99184.47
2023-04-12T22:17:47.814Z,99187.19
2023-04-12T22:20:15.842Z,99179.91
2023-04-12T22:22:57.262Z,99185.31
2023-04-12T22:25:27.070Z,99171.81
2023-04-12T22:27:58.037Z,99172.38
2023-04-12T22:30:26.085Z,99164.28
2023-04-12T22:32:54.291Z,99161.56
2023-04-12T22:35:25.124Z,99164.28
2023-04-12T22:38:20.853Z,99158.63
2023-04-12T22:40:48.933Z,99166.97
2023-04-12T22:43:22.335Z,99167.81
2023-04-12T22:45:54.128Z,99159.13
2023-04-12T22:48:25.135Z,99161.56
2023-04-12T22:50:54.535Z,99160.75
2023-04-12T22:53:22.541Z,99159.13
2023-04-12T22:55:50.588Z,99161.84
2023-04-12T22:58:19.898Z,99156.66
2023-04-12T23:00:49.290Z,99158.31
2023-04-12T23:03:17.822Z,99152.94
2023-04-12T23:05:45.938Z,99143.97
2023-04-12T23:08:14.486Z,99141.28
2023-04-12T23:10:43.213Z,99135.06
2023-04-12T23:13:11.821Z,99140.47
2023-04-12T23:15:41.669Z,99142.34
2023-04-12T23:18:10.778Z,99135.06
2023-04-12T23:20:39.061Z,99136.72
2023-04-12T23:23:06.981Z,99138.59
2023-04-12T23:25:41.900Z,99142.13
2023-04-12T23:28:13.455Z,99134.03
2023-04-12T23:30:44.848Z,99142.13
2023-04-12T23:33:13.076Z,99142.13
2023-04-12T23:35:41.724Z,99136.72
2023-04-12T23:38:32.786Z,99132.16
2023-04-12T23:41:02.237Z,99132.38
2023-04-12T23:43:30.467Z,99132.38
2023-04-12T23:46:04.446Z,99126.97
2023-04-12T23:48:32.863Z,99126.97
2023-04-12T23:51:01.137Z,99124.28
2023-04-12T23:53:35.280Z,99122.66
2023-04-12T23:56:03.271Z,99122.66
2023-04-12T23:58:31.223Z,99118.06
